sensor_id;sensor_type;location;lat;lon;timestamp;temperature;humidity
29211;DHT22;16250;49.932;10.980;2022-12-08T00:00:45;2.20;99.90
29211;DHT22;16250;49.932;10.980;2022-12-08T00:03:10;2.20;99.90
29211;DHT22;16250;49.932;10.980;2022-12-08T00:05:36;2.20;99.90
29211;DHT22;16250;49.932;10.980;2022-12-08T00:08:20;2.20;99.90
29211;DHT22;16250;49.932;10.980;2022-12-08T00:11:04;2.30;99.90
29211;DHT22;16250;49.932;10.980;2022-12-08T00:13:30;2.30;99.90
29211;DHT22;16250;49.932;10.980;2022-12-08T00:15:59;2.30;99.90
29211;DHT22;16250;49.932;10.980;2022-12-08T00:18:25;2.30;99.90
29211;DHT22;16250;49.932;10.980;2022-12-08T00:20:55;2.30;99.90
29211;DHT22;16250;49.932;10.980;2022-12-08T00:23:21;2.30;99.90
29211;DHT22;16250;49.932;10.980;2022-12-08T00:25:46;2.30;99.90
29211;DHT22;16250;49.932;10.980;2022-12-08T00:28:12;2.30;99.90
29211;DHT22;16250;49.932;10.980;2022-12-08T00:30:39;2.30;99.90
29211;DHT22;16250;49.932;10.980;2022-12-08T00:33:05;2.30;99.90
29211;DHT22;16250;49.932;10.980;2022-12-08T00:35:31;2.40;99.90
29211;DHT22;16250;49.932;10.980;2022-12-08T00:37:56;2.40;99.90
29211;DHT22;16250;49.932;10.980;2022-12-08T00:40:22;2.30;99.90
29211;DHT22;16250;49.932;10.980;2022-12-08T00:42:47;2.30;99.90
29211;DHT22;16250;49.932;10.980;2022-12-08T00:45:13;2.30;99.90
29211;DHT22;16250;49.932;10.980;2022-12-08T00:47:38;2.20;99.90
29211;DHT22;16250;49.932;10.980;2022-12-08T00:50:04;2.30;99.90
29211;DHT22;16250;49.932;10.980;2022-12-08T00:52:30;2.30;99.90
29211;DHT22;16250;49.932;10.980;2022-12-08T00:54:55;2.30;99.90
29211;DHT22;16250;49.932;10.980;2022-12-08T00:57:21;2.20;99.90
29211;DHT22;16250;49.932;10.980;2022-12-08T00:59:46;2.30;99.90
29211;DHT22;16250;49.932;10.980;2022-12-08T01:02:12;2.30;99.90
29211;DHT22;16250;49.932;10.980;2022-12-08T01:04:38;2.30;99.90
29211;DHT22;16250;49.932;10.980;2022-12-08T01:07:03;2.30;99.90
29211;DHT22;16250;49.932;10.980;2022-12-08T01:09:29;2.20;99.90
29211;DHT22;16250;49.932;10.980;2022-12-08T01:11:55;2.20;99.90
29211;DHT22;16250;49.932;10.980;2022-12-08T01:14:20;2.20;99.90
29211;DHT22;16250;49.932;10.980;2022-12-08T01:16:46;2.20;99.90
29211;DHT22;16250;49.932;10.980;2022-12-08T01:19:13;2.10;99.90
29211;DHT22;16250;49.932;10.980;2022-12-08T01:21:39;2.20;99.90
29211;DHT22;16250;49.932;10.980;2022-12-08T01:24:06;2.10;99.90
29211;DHT22;16250;49.932;10.980;2022-12-08T01:26:31;2.10;99.90
29211;DHT22;16250;49.932;10.980;2022-12-08T01:28:58;2.10;99.90
29211;DHT22;16250;49.932;10.980;2022-12-08T01:31:23;2.10;99.90
29211;DHT22;16250;49.932;10.980;2022-12-08T01:33:49;2.10;99.90
29211;DHT22;16250;49.932;10.980;2022-12-08T01:36:23;2.10;99.90
29211;DHT22;16250;49.932;10.980;2022-12-08T01:38:50;2.10;99.90
29211;DHT22;16250;49.932;10.980;2022-12-08T01:41:18;2.10;99.90
29211;DHT22;16250;49.932;10.980;2022-12-08T01:46:19;2.20;99.90
29211;DHT22;16250;49.932;10.980;2022-12-08T01:48:45;2.20;99.90
29211;DHT22;16250;49.932;10.980;2022-12-08T01:51:10;2.20;99.90
29211;DHT22;16250;49.932;10.980;2022-12-08T01:53:37;2.20;99.90
29211;DHT22;16250;49.932;10.980;2022-12-08T01:56:10;2.30;99.90
29211;DHT22;16250;49.932;10.980;2022-12-08T01:58:39;2.30;99.90
29211;DHT22;16250;49.932;10.980;2022-12-08T02:01:06;2.20;99.90
29211;DHT22;16250;49.932;10.980;2022-12-08T02:03:58;2.20;99.90
29211;DHT22;16250;49.932;10.980;2022-12-08T02:06:26;2.10;99.90
29211;DHT22;16250;49.932;10.980;2022-12-08T02:08:52;2.10;99.90
29211;DHT22;16250;49.932;10.980;2022-12-08T02:11:20;2.10;99.90
29211;DHT22;16250;49.932;10.980;2022-12-08T02:13:46;2.10;99.90
29211;DHT22;16250;49.932;10.980;2022-12-08T02:16:36;2.10;99.90
29211;DHT22;16250;49.932;10.980;2022-12-08T02:22:10;2.00;99.90
29211;DHT22;16250;49.932;10.980;2022-12-08T02:27:32;2.00;99.90
29211;DHT22;16250;49.932;10.980;2022-12-08T02:41:14;2.00;99.90
29211;DHT22;16250;49.932;10.980;2022-12-08T02:43:44;2.00;99.90
29211;DHT22;16250;49.932;10.980;2022-12-08T02:46:16;2.00;99.90
29211;DHT22;16250;49.932;10.980;2022-12-08T02:48:43;2.00;99.90
29211;DHT22;16250;49.932;10.980;2022-12-08T02:51:09;2.00;99.90
29211;DHT22;16250;49.932;10.980;2022-12-08T02:53:35;1.90;99.90
29211;DHT22;16250;49.932;10.980;2022-12-08T03:01:18;1.90;99.90
29211;DHT22;16250;49.932;10.980;2022-12-08T03:04:02;1.90;99.90
29211;DHT22;16250;49.932;10.980;2022-12-08T03:09:40;1.90;99.90
29211;DHT22;16250;49.932;10.980;2022-12-08T03:12:33;1.90;99.90
29211;DHT22;16250;49.932;10.980;2022-12-08T03:15:07;1.90;99.90
29211;DHT22;16250;49.932;10.980;2022-12-08T03:17:35;2.00;99.90
29211;DHT22;16250;49.932;10.980;2022-12-08T03:20:06;1.90;99.90
29211;DHT22;16250;49.932;10.980;2022-12-08T03:22:32;1.90;99.90
29211;DHT22;16250;49.932;10.980;2022-12-08T03:24:58;1.90;99.90
29211;DHT22;16250;49.932;10.980;2022-12-08T03:27:27;1.90;99.90
29211;DHT22;16250;49.932;10.980;2022-12-08T03:29:55;1.90;99.90
29211;DHT22;16250;49.932;10.980;2022-12-08T03:35:04;2.00;99.90
29211;DHT22;16250;49.932;10.980;2022-12-08T03:37:34;2.00;99.90
29211;DHT22;16250;49.932;10.980;2022-12-08T03:39:59;1.90;99.90
29211;DHT22;16250;49.932;10.980;2022-12-08T03:42:25;2.00;99.90
29211;DHT22;16250;49.932;10.980;2022-12-08T03:44:51;1.90;99.90
29211;DHT22;16250;49.932;10.980;2022-12-08T03:47:16;1.80;99.90
29211;DHT22;16250;49.932;10.980;2022-12-08T03:49:42;1.90;99.90
29211;DHT22;16250;49.932;10.980;2022-12-08T03:52:07;1.90;99.90
29211;DHT22;16250;49.932;10.980;2022-12-08T03:54:33;1.90;99.90
29211;DHT22;16250;49.932;10.980;2022-12-08T03:56:58;2.00;99.90
29211;DHT22;16250;49.932;10.980;2022-12-08T03:59:24;1.90;99.90
29211;DHT22;16250;49.932;10.980;2022-12-08T04:01:49;1.90;99.90
29211;DHT22;16250;49.932;10.980;2022-12-08T04:04:15;1.90;99.90
29211;DHT22;16250;49.932;10.980;2022-12-08T04:06:40;1.90;99.90
29211;DHT22;16250;49.932;10.980;2022-12-08T04:09:06;2.00;99.90
29211;DHT22;16250;49.932;10.980;2022-12-08T04:11:31;1.90;99.90
29211;DHT22;16250;49.932;10.980;2022-12-08T04:13:57;1.90;99.90
29211;DHT22;16250;49.932;10.980;2022-12-08T04:16:24;1.90;99.90
29211;DHT22;16250;49.932;10.980;2022-12-08T04:18:50;1.90;99.90
29211;DHT22;16250;49.932;10.980;2022-12-08T04:21:16;1.90;99.90
29211;DHT22;16250;49.932;10.980;2022-12-08T04:23:42;2.00;99.90
29211;DHT22;16250;49.932;10.980;2022-12-08T04:26:08;1.90;99.90
29211;DHT22;16250;49.932;10.980;2022-12-08T04:28:34;1.90;99.90
29211;DHT22;16250;49.932;10.980;2022-12-08T04:31:00;1.90;99.90
29211;DHT22;16250;49.932;10.980;2022-12-08T04:33:26;1.90;99.90
29211;DHT22;16250;49.932;10.980;2022-12-08T04:35:51;1.90;99.90
29211;DHT22;16250;49.932;10.980;2022-12-08T04:38:17;2.00;99.90
29211;DHT22;16250;49.932;10.980;2022-12-08T04:40:42;1.90;99.90
29211;DHT22;16250;49.932;10.980;2022-12-08T04:43:08;1.90;99.90
29211;DHT22;16250;49.932;10.980;2022-12-08T04:45:34;1.90;99.90
29211;DHT22;16250;49.932;10.980;2022-12-08T04:48:00;1.80;99.90
29211;DHT22;16250;49.932;10.980;2022-12-08T04:50:26;1.90;99.90
29211;DHT22;16250;49.932;10.980;2022-12-08T04:52:52;1.90;99.90
29211;DHT22;16250;49.932;10.980;2022-12-08T04:55:17;1.90;99.90
29211;DHT22;16250;49.932;10.980;2022-12-08T04:57:43;1.80;99.90
29211;DHT22;16250;49.932;10.980;2022-12-08T05:00:09;1.90;99.90
29211;DHT22;16250;49.932;10.980;2022-12-08T05:02:35;1.80;99.90
29211;DHT22;16250;49.932;10.980;2022-12-08T05:05:00;1.80;99.90
29211;DHT22;16250;49.932;10.980;2022-12-08T05:07:26;1.90;99.90
29211;DHT22;16250;49.932;10.980;2022-12-08T05:09:51;1.90;99.90
29211;DHT22;16250;49.932;10.980;2022-12-08T05:12:17;1.90;99.90
29211;DHT22;16250;49.932;10.980;2022-12-08T05:14:43;1.80;99.90
29211;DHT22;16250;49.932;10.980;2022-12-08T05:17:08;1.90;99.90
29211;DHT22;16250;49.932;10.980;2022-12-08T05:19:34;1.90;99.90
29211;DHT22;16250;49.932;10.980;2022-12-08T05:21:59;1.90;99.90
29211;DHT22;16250;49.932;10.980;2022-12-08T05:24:25;2.00;99.90
29211;DHT22;16250;49.932;10.980;2022-12-08T05:26:50;2.00;99.90
29211;DHT22;16250;49.932;10.980;2022-12-08T05:29:16;1.90;99.90
29211;DHT22;16250;49.932;10.980;2022-12-08T05:31:41;1.90;99.90
29211;DHT22;16250;49.932;10.980;2022-12-08T05:34:07;1.90;99.90
29211;DHT22;16250;49.932;10.980;2022-12-08T05:36:33;1.90;99.90
29211;DHT22;16250;49.932;10.980;2022-12-08T05:38:58;2.00;99.90
29211;DHT22;16250;49.932;10.980;2022-12-08T05:41:24;2.00;99.90
29211;DHT22;16250;49.932;10.980;2022-12-08T05:43:49;1.90;99.90
29211;DHT22;16250;49.932;10.980;2022-12-08T05:46:16;1.90;99.90
29211;DHT22;16250;49.932;10.980;2022-12-08T05:48:41;2.00;99.90
29211;DHT22;16250;49.932;10.980;2022-12-08T05:51:18;1.90;99.90
29211;DHT22;16250;49.932;10.980;2022-12-08T05:53:44;1.90;99.90
29211;DHT22;16250;49.932;10.980;2022-12-08T05:56:09;2.00;99.90
29211;DHT22;16250;49.932;10.980;2022-12-08T05:58:35;1.90;99.90
29211;DHT22;16250;49.932;10.980;2022-12-08T06:01:01;1.90;99.90
29211;DHT22;16250;49.932;10.980;2022-12-08T06:03:27;1.90;99.90
29211;DHT22;16250;49.932;10.980;2022-12-08T06:05:53;1.90;99.90
29211;DHT22;16250;49.932;10.980;2022-12-08T06:08:19;1.80;99.90
29211;DHT22;16250;49.932;10.980;2022-12-08T06:10:44;1.80;99.90
29211;DHT22;16250;49.932;10.980;2022-12-08T06:13:10;1.80;99.90
29211;DHT22;16250;49.932;10.980;2022-12-08T06:15:37;1.90;99.90
29211;DHT22;16250;49.932;10.980;2022-12-08T06:18:04;1.90;99.90
29211;DHT22;16250;49.932;10.980;2022-12-08T06:20:29;1.80;99.90
29211;DHT22;16250;49.932;10.980;2022-12-08T06:22:55;1.80;99.90
29211;DHT22;16250;49.932;10.980;2022-12-08T06:25:21;1.90;99.90
29211;DHT22;16250;49.932;10.980;2022-12-08T06:27:47;1.90;99.90
29211;DHT22;16250;49.932;10.980;2022-12-08T06:30:13;1.90;99.90
29211;DHT22;16250;49.932;10.980;2022-12-08T06:32:39;1.90;99.90
29211;DHT22;16250;49.932;10.980;2022-12-08T06:35:05;1.90;99.90
29211;DHT22;16250;49.932;10.980;2022-12-08T06:37:31;1.80;99.90
29211;DHT22;16250;49.932;10.980;2022-12-08T06:39:56;1.80;99.90
29211;DHT22;16250;49.932;10.980;2022-12-08T06:42:22;1.80;99.90
29211;DHT22;16250;49.932;10.980;2022-12-08T06:45:06;1.80;99.90
29211;DHT22;16250;49.932;10.980;2022-12-08T06:47:32;1.80;99.90
29211;DHT22;16250;49.932;10.980;2022-12-08T06:49:58;1.80;99.90
29211;DHT22;16250;49.932;10.980;2022-12-08T06:52:23;1.70;99.90
29211;DHT22;16250;49.932;10.980;2022-12-08T06:54:49;1.80;99.90
29211;DHT22;16250;49.932;10.980;2022-12-08T06:57:14;1.80;99.90
29211;DHT22;16250;49.932;10.980;2022-12-08T06:59:40;1.80;99.90
29211;DHT22;16250;49.932;10.980;2022-12-08T07:02:06;1.80;99.90
29211;DHT22;16250;49.932;10.980;2022-12-08T07:04:31;1.80;99.90
29211;DHT22;16250;49.932;10.980;2022-12-08T07:06:57;1.70;99.90
29211;DHT22;16250;49.932;10.980;2022-12-08T07:09:22;1.80;99.90
29211;DHT22;16250;49.932;10.980;2022-12-08T07:11:48;1.80;99.90
29211;DHT22;16250;49.932;10.980;2022-12-08T07:14:13;1.70;99.90
29211;DHT22;16250;49.932;10.980;2022-12-08T07:16:39;1.70;99.90
29211;DHT22;16250;49.932;10.980;2022-12-08T07:19:05;1.70;99.90
29211;DHT22;16250;49.932;10.980;2022-12-08T07:21:30;1.70;99.90
29211;DHT22;16250;49.932;10.980;2022-12-08T07:23:56;1.70;99.90
29211;DHT22;16250;49.932;10.980;2022-12-08T07:26:22;1.80;99.90
29211;DHT22;16250;49.932;10.980;2022-12-08T07:28:47;1.70;99.90
29211;DHT22;16250;49.932;10.980;2022-12-08T07:31:20;1.80;99.90
29211;DHT22;16250;49.932;10.980;2022-12-08T07:33:47;1.70;99.90
29211;DHT22;16250;49.932;10.980;2022-12-08T07:36:12;1.70;99.90
29211;DHT22;16250;49.932;10.980;2022-12-08T07:38:38;1.70;99.90
29211;DHT22;16250;49.932;10.980;2022-12-08T07:41:04;1.80;99.90
29211;DHT22;16250;49.932;10.980;2022-12-08T07:43:30;1.80;99.90
29211;DHT22;16250;49.932;10.980;2022-12-08T07:45:55;1.60;99.90
29211;DHT22;16250;49.932;10.980;2022-12-08T07:48:21;1.70;99.90
29211;DHT22;16250;49.932;10.980;2022-12-08T07:50:46;1.80;99.90
29211;DHT22;16250;49.932;10.980;2022-12-08T07:53:12;1.70;99.90
29211;DHT22;16250;49.932;10.980;2022-12-08T07:55:39;1.70;99.90
29211;DHT22;16250;49.932;10.980;2022-12-08T07:58:06;1.80;99.90
29211;DHT22;16250;49.932;10.980;2022-12-08T08:00:31;1.80;99.90
29211;DHT22;16250;49.932;10.980;2022-12-08T08:02:57;1.80;99.90
29211;DHT22;16250;49.932;10.980;2022-12-08T08:05:22;1.70;99.90
29211;DHT22;16250;49.932;10.980;2022-12-08T08:07:48;1.60;99.90
29211;DHT22;16250;49.932;10.980;2022-12-08T08:10:13;1.70;99.90
29211;DHT22;16250;49.932;10.980;2022-12-08T08:12:39;1.80;99.90
29211;DHT22;16250;49.932;10.980;2022-12-08T08:15:06;1.70;99.90
29211;DHT22;16250;49.932;10.980;2022-12-08T08:17:33;1.70;99.90
29211;DHT22;16250;49.932;10.980;2022-12-08T08:19:59;1.70;99.90
29211;DHT22;16250;49.932;10.980;2022-12-08T08:22:25;1.80;99.90
29211;DHT22;16250;49.932;10.980;2022-12-08T08:24:51;1.80;99.90
29211;DHT22;16250;49.932;10.980;2022-12-08T08:27:17;1.80;99.90
29211;DHT22;16250;49.932;10.980;2022-12-08T08:29:42;1.80;99.90
29211;DHT22;16250;49.932;10.980;2022-12-08T08:32:08;1.80;99.90
29211;DHT22;16250;49.932;10.980;2022-12-08T08:34:34;1.80;99.90
29211;DHT22;16250;49.932;10.980;2022-12-08T08:36:59;1.80;99.90
29211;DHT22;16250;49.932;10.980;2022-12-08T08:39:25;1.80;99.90
29211;DHT22;16250;49.932;10.980;2022-12-08T08:41:51;1.80;99.90
29211;DHT22;16250;49.932;10.980;2022-12-08T08:44:16;1.80;99.90
29211;DHT22;16250;49.932;10.980;2022-12-08T08:46:42;1.90;99.90
29211;DHT22;16250;49.932;10.980;2022-12-08T08:49:08;1.90;99.90
29211;DHT22;16250;49.932;10.980;2022-12-08T08:51:33;1.90;99.90
29211;DHT22;16250;49.932;10.980;2022-12-08T08:53:59;1.80;99.90
29211;DHT22;16250;49.932;10.980;2022-12-08T08:56:25;2.00;99.90
29211;DHT22;16250;49.932;10.980;2022-12-08T08:58:51;2.00;99.90
29211;DHT22;16250;49.932;10.980;2022-12-08T09:01:20;2.00;99.90
29211;DHT22;16250;49.932;10.980;2022-12-08T09:03:47;2.00;99.90
29211;DHT22;16250;49.932;10.980;2022-12-08T09:06:13;2.00;99.90
29211;DHT22;16250;49.932;10.980;2022-12-08T09:08:40;2.00;99.90
29211;DHT22;16250;49.932;10.980;2022-12-08T09:11:06;2.00;99.90
29211;DHT22;16250;49.932;10.980;2022-12-08T09:13:32;2.00;99.90
29211;DHT22;16250;49.932;10.980;2022-12-08T09:16:00;1.90;99.90
29211;DHT22;16250;49.932;10.980;2022-12-08T09:18:26;1.90;99.90
29211;DHT22;16250;49.932;10.980;2022-12-08T09:20:52;1.90;99.90
29211;DHT22;16250;49.932;10.980;2022-12-08T09:23:18;1.90;99.90
29211;DHT22;16250;49.932;10.980;2022-12-08T09:25:44;1.90;99.90
29211;DHT22;16250;49.932;10.980;2022-12-08T09:28:10;2.00;99.90
29211;DHT22;16250;49.932;10.980;2022-12-08T09:30:35;1.90;99.90
29211;DHT22;16250;49.932;10.980;2022-12-08T09:33:01;1.90;99.90
29211;DHT22;16250;49.932;10.980;2022-12-08T09:35:27;2.00;99.90
29211;DHT22;16250;49.932;10.980;2022-12-08T09:37:53;2.00;99.90
29211;DHT22;16250;49.932;10.980;2022-12-08T09:40:20;2.10;99.90
29211;DHT22;16250;49.932;10.980;2022-12-08T09:42:54;2.10;99.90
29211;DHT22;16250;49.932;10.980;2022-12-08T09:45:22;2.10;99.90
29211;DHT22;16250;49.932;10.980;2022-12-08T09:50:42;2.00;99.90
29211;DHT22;16250;49.932;10.980;2022-12-08T09:53:15;2.10;99.90
29211;DHT22;16250;49.932;10.980;2022-12-08T09:55:47;2.20;99.90
29211;DHT22;16250;49.932;10.980;2022-12-08T10:00:57;2.20;99.90
29211;DHT22;16250;49.932;10.980;2022-12-08T10:03:27;2.20;99.90
29211;DHT22;16250;49.932;10.980;2022-12-08T10:12:01;2.10;99.90
29211;DHT22;16250;49.932;10.980;2022-12-08T10:14:33;2.10;99.90
29211;DHT22;16250;49.932;10.980;2022-12-08T10:17:04;2.10;99.90
29211;DHT22;16250;49.932;10.980;2022-12-08T10:19:33;2.10;99.90
29211;DHT22;16250;49.932;10.980;2022-12-08T10:21:58;2.10;99.90
29211;DHT22;16250;49.932;10.980;2022-12-08T10:24:42;2.10;99.90
29211;DHT22;16250;49.932;10.980;2022-12-08T10:27:12;2.10;99.90
29211;DHT22;16250;49.932;10.980;2022-12-08T10:29:39;2.10;99.90
29211;DHT22;16250;49.932;10.980;2022-12-08T10:32:13;2.10;99.90
29211;DHT22;16250;49.932;10.980;2022-12-08T10:35:02;2.20;99.90
29211;DHT22;16250;49.932;10.980;2022-12-08T10:37:28;2.30;99.90
29211;DHT22;16250;49.932;10.980;2022-12-08T10:42:33;2.20;99.90
29211;DHT22;16250;49.932;10.980;2022-12-08T10:47:36;2.30;99.90
29211;DHT22;16250;49.932;10.980;2022-12-08T10:50:34;2.30;99.90
29211;DHT22;16250;49.932;10.980;2022-12-08T10:58:25;2.40;99.90
29211;DHT22;16250;49.932;10.980;2022-12-08T11:00:54;2.40;99.90
29211;DHT22;16250;49.932;10.980;2022-12-08T11:03:32;2.40;99.90
29211;DHT22;16250;49.932;10.980;2022-12-08T11:06:00;2.30;99.90
29211;DHT22;16250;49.932;10.980;2022-12-08T11:08:27;2.30;99.90
29211;DHT22;16250;49.932;10.980;2022-12-08T11:10:54;2.40;99.90
29211;DHT22;16250;49.932;10.980;2022-12-08T11:13:24;2.40;99.90
29211;DHT22;16250;49.932;10.980;2022-12-08T11:15:52;2.40;99.90
29211;DHT22;16250;49.932;10.980;2022-12-08T11:18:27;2.40;99.90
29211;DHT22;16250;49.932;10.980;2022-12-08T11:21:00;2.30;99.90
29211;DHT22;16250;49.932;10.980;2022-12-08T11:23:27;2.30;99.90
29211;DHT22;16250;49.932;10.980;2022-12-08T11:25:55;2.30;99.90
29211;DHT22;16250;49.932;10.980;2022-12-08T11:28:23;2.30;99.90
29211;DHT22;16250;49.932;10.980;2022-12-08T11:31:12;2.20;99.90
29211;DHT22;16250;49.932;10.980;2022-12-08T11:33:41;2.30;99.90
29211;DHT22;16250;49.932;10.980;2022-12-08T11:36:10;2.30;99.90
29211;DHT22;16250;49.932;10.980;2022-12-08T11:38:41;2.30;99.90
29211;DHT22;16250;49.932;10.980;2022-12-08T11:41:09;2.30;99.90
29211;DHT22;16250;49.932;10.980;2022-12-08T11:46:33;2.30;99.90
29211;DHT22;16250;49.932;10.980;2022-12-08T11:49:10;2.30;99.90
29211;DHT22;16250;49.932;10.980;2022-12-08T11:54:34;2.40;99.90
29211;DHT22;16250;49.932;10.980;2022-12-08T11:57:03;2.40;99.90
29211;DHT22;16250;49.932;10.980;2022-12-08T11:59:38;2.40;99.90
29211;DHT22;16250;49.932;10.980;2022-12-08T12:02:15;2.40;99.90
29211;DHT22;16250;49.932;10.980;2022-12-08T12:10:35;2.40;99.90
29211;DHT22;16250;49.932;10.980;2022-12-08T12:13:19;2.50;99.90
29211;DHT22;16250;49.932;10.980;2022-12-08T12:18:44;2.60;99.90
29211;DHT22;16250;49.932;10.980;2022-12-08T12:21:25;2.40;99.90
29211;DHT22;16250;49.932;10.980;2022-12-08T12:26:24;2.50;99.90
29211;DHT22;16250;49.932;10.980;2022-12-08T12:29:01;2.50;99.90
29211;DHT22;16250;49.932;10.980;2022-12-08T12:31:34;2.50;99.90
29211;DHT22;16250;49.932;10.980;2022-12-08T12:34:14;2.60;99.90
29211;DHT22;16250;49.932;10.980;2022-12-08T12:36:50;2.70;99.90
29211;DHT22;16250;49.932;10.980;2022-12-08T12:39:20;2.70;99.90
29211;DHT22;16250;49.932;10.980;2022-12-08T12:41:54;2.70;99.90
29211;DHT22;16250;49.932;10.980;2022-12-08T12:44:39;2.70;99.90
29211;DHT22;16250;49.932;10.980;2022-12-08T12:47:10;2.70;99.90
29211;DHT22;16250;49.932;10.980;2022-12-08T13:02:37;2.60;99.90
29211;DHT22;16250;49.932;10.980;2022-12-08T13:05:12;2.60;99.90
29211;DHT22;16250;49.932;10.980;2022-12-08T13:07:44;2.60;99.90
29211;DHT22;16250;49.932;10.980;2022-12-08T13:10:20;2.60;99.90
29211;DHT22;16250;49.932;10.980;2022-12-08T13:21:15;2.60;99.90
29211;DHT22;16250;49.932;10.980;2022-12-08T13:23:48;2.50;99.90
29211;DHT22;16250;49.932;10.980;2022-12-08T13:34:12;2.60;99.90
29211;DHT22;16250;49.932;10.980;2022-12-08T13:36:46;2.70;99.90
29211;DHT22;16250;49.932;10.980;2022-12-08T13:39:40;2.70;99.90
29211;DHT22;16250;49.932;10.980;2022-12-08T13:47:33;2.70;99.90
29211;DHT22;16250;49.932;10.980;2022-12-08T13:50:13;2.70;99.90
29211;DHT22;16250;49.932;10.980;2022-12-08T13:52:50;2.60;99.90
29211;DHT22;16250;49.932;10.980;2022-12-08T13:55:19;2.60;99.90
29211;DHT22;16250;49.932;10.980;2022-12-08T13:57:49;2.60;99.90
29211;DHT22;16250;49.932;10.980;2022-12-08T14:00:18;2.60;99.90
29211;DHT22;16250;49.932;10.980;2022-12-08T14:02:46;2.60;99.90
29211;DHT22;16250;49.932;10.980;2022-12-08T14:05:12;2.60;99.90
29211;DHT22;16250;49.932;10.980;2022-12-08T14:07:39;2.60;99.90
29211;DHT22;16250;49.932;10.980;2022-12-08T14:10:29;2.50;99.90
29211;DHT22;16250;49.932;10.980;2022-12-08T14:13:00;2.60;99.90
29211;DHT22;16250;49.932;10.980;2022-12-08T14:15:27;2.60;99.90
29211;DHT22;16250;49.932;10.980;2022-12-08T14:17:55;2.60;99.90
29211;DHT22;16250;49.932;10.980;2022-12-08T14:22:51;2.60;99.90
29211;DHT22;16250;49.932;10.980;2022-12-08T14:25:18;2.60;99.90
29211;DHT22;16250;49.932;10.980;2022-12-08T14:27:47;2.60;99.90
29211;DHT22;16250;49.932;10.980;2022-12-08T14:32:43;2.50;99.90
29211;DHT22;16250;49.932;10.980;2022-12-08T14:35:24;2.50;99.90
29211;DHT22;16250;49.932;10.980;2022-12-08T14:37:58;2.50;99.90
29211;DHT22;16250;49.932;10.980;2022-12-08T14:53:22;2.50;99.90
29211;DHT22;16250;49.932;10.980;2022-12-08T14:55:48;2.50;99.90
29211;DHT22;16250;49.932;10.980;2022-12-08T14:58:25;2.40;99.90
29211;DHT22;16250;49.932;10.980;2022-12-08T15:00:55;2.40;99.90
29211;DHT22;16250;49.932;10.980;2022-12-08T15:03:24;2.40;99.90
29211;DHT22;16250;49.932;10.980;2022-12-08T15:05:54;2.50;99.90
29211;DHT22;16250;49.932;10.980;2022-12-08T15:08:20;2.50;99.90
29211;DHT22;16250;49.932;10.980;2022-12-08T15:11:13;2.40;99.90
29211;DHT22;16250;49.932;10.980;2022-12-08T15:13:43;2.50;99.90
29211;DHT22;16250;49.932;10.980;2022-12-08T15:16:45;2.40;99.90
29211;DHT22;16250;49.932;10.980;2022-12-08T15:19:17;2.40;99.90
29211;DHT22;16250;49.932;10.980;2022-12-08T15:21:44;2.40;99.90
29211;DHT22;16250;49.932;10.980;2022-12-08T15:24:12;2.40;99.90
29211;DHT22;16250;49.932;10.980;2022-12-08T15:26:44;2.40;99.90
29211;DHT22;16250;49.932;10.980;2022-12-08T15:29:18;2.40;99.90
29211;DHT22;16250;49.932;10.980;2022-12-08T15:31:45;2.40;99.90
29211;DHT22;16250;49.932;10.980;2022-12-08T15:34:10;2.40;99.90
29211;DHT22;16250;49.932;10.980;2022-12-08T15:36:36;2.50;99.90
29211;DHT22;16250;49.932;10.980;2022-12-08T15:39:05;2.40;99.90
29211;DHT22;16250;49.932;10.980;2022-12-08T15:41:30;2.50;99.90
29211;DHT22;16250;49.932;10.980;2022-12-08T15:43:56;2.50;99.90
29211;DHT22;16250;49.932;10.980;2022-12-08T15:46:22;2.50;99.90
29211;DHT22;16250;49.932;10.980;2022-12-08T15:48:47;2.40;99.90
29211;DHT22;16250;49.932;10.980;2022-12-08T15:51:13;2.50;99.90
29211;DHT22;16250;49.932;10.980;2022-12-08T15:53:39;2.60;99.90
29211;DHT22;16250;49.932;10.980;2022-12-08T15:56:06;2.60;99.90
29211;DHT22;16250;49.932;10.980;2022-12-08T15:58:32;2.60;99.90
29211;DHT22;16250;49.932;10.980;2022-12-08T16:00:57;2.50;99.90
29211;DHT22;16250;49.932;10.980;2022-12-08T16:03:25;2.40;99.90
29211;DHT22;16250;49.932;10.980;2022-12-08T16:05:52;2.50;99.90
29211;DHT22;16250;49.932;10.980;2022-12-08T16:08:18;2.50;99.90
29211;DHT22;16250;49.932;10.980;2022-12-08T16:10:44;2.50;99.90
29211;DHT22;16250;49.932;10.980;2022-12-08T16:13:17;2.60;99.90
29211;DHT22;16250;49.932;10.980;2022-12-08T16:16:25;2.60;99.90
29211;DHT22;16250;49.932;10.980;2022-12-08T16:18:51;2.50;99.90
29211;DHT22;16250;49.932;10.980;2022-12-08T16:21:17;2.50;99.90
29211;DHT22;16250;49.932;10.980;2022-12-08T16:23:43;2.50;99.90
29211;DHT22;16250;49.932;10.980;2022-12-08T16:26:19;2.60;99.90
29211;DHT22;16250;49.932;10.980;2022-12-08T16:28:46;2.50;99.90
29211;DHT22;16250;49.932;10.980;2022-12-08T16:31:12;2.50;99.90
29211;DHT22;16250;49.932;10.980;2022-12-08T16:33:38;2.50;99.90
29211;DHT22;16250;49.932;10.980;2022-12-08T16:36:04;2.50;99.90
29211;DHT22;16250;49.932;10.980;2022-12-08T16:38:30;2.50;99.90
29211;DHT22;16250;49.932;10.980;2022-12-08T16:40:55;2.50;99.90
29211;DHT22;16250;49.932;10.980;2022-12-08T16:43:40;2.50;99.90
29211;DHT22;16250;49.932;10.980;2022-12-08T16:46:16;2.40;99.90
29211;DHT22;16250;49.932;10.980;2022-12-08T16:48:42;2.30;99.90
29211;DHT22;16250;49.932;10.980;2022-12-08T16:51:14;2.20;99.90
29211;DHT22;16250;49.932;10.980;2022-12-08T16:53:40;2.10;99.90
29211;DHT22;16250;49.932;10.980;2022-12-08T16:56:05;2.00;99.90
29211;DHT22;16250;49.932;10.980;2022-12-08T16:58:31;1.90;99.90
29211;DHT22;16250;49.932;10.980;2022-12-08T17:00:57;1.80;99.90
29211;DHT22;16250;49.932;10.980;2022-12-08T17:03:22;1.80;99.90
29211;DHT22;16250;49.932;10.980;2022-12-08T17:05:48;1.80;99.90
29211;DHT22;16250;49.932;10.980;2022-12-08T17:08:13;1.90;99.90
29211;DHT22;16250;49.932;10.980;2022-12-08T17:10:39;1.80;99.90
29211;DHT22;16250;49.932;10.980;2022-12-08T17:13:05;1.90;99.90
29211;DHT22;16250;49.932;10.980;2022-12-08T17:15:31;1.90;99.90
29211;DHT22;16250;49.932;10.980;2022-12-08T17:17:56;1.80;99.90
29211;DHT22;16250;49.932;10.980;2022-12-08T17:20:26;1.80;99.90
29211;DHT22;16250;49.932;10.980;2022-12-08T17:22:53;1.80;99.90
29211;DHT22;16250;49.932;10.980;2022-12-08T17:25:19;1.80;99.90
29211;DHT22;16250;49.932;10.980;2022-12-08T17:27:45;1.80;99.90
29211;DHT22;16250;49.932;10.980;2022-12-08T17:30:11;1.80;99.90
29211;DHT22;16250;49.932;10.980;2022-12-08T17:32:40;1.90;99.90
29211;DHT22;16250;49.932;10.980;2022-12-08T17:35:06;1.90;99.90
29211;DHT22;16250;49.932;10.980;2022-12-08T17:37:31;1.90;99.90
29211;DHT22;16250;49.932;10.980;2022-12-08T17:39:57;1.90;99.90